Time;durP1;ratioP1;P1;durP2;ratioP2;P2;SDS_P1;SDS_P2;PMS_P1;PMS_P2;Temp;Humidity;BMP_temperature;BMP_pressure;BME280_temperature;BME280_humidity;BME280_pressure;Samples;Min_cycle;Max_cycle;Signal;HPM_P1;HPM_P2
2023/11/04 00:01:29;;;;;;;7.45;2.63;;;7.40;99.90;;;;;;5125474;28;20042;-45
2023/11/04 00:03:55;;;;;;;7.80;2.47;;;7.30;99.90;;;;;;5125572;28;20090;-46
2023/11/04 00:06:22;;;;;;;5.15;2.28;;;7.30;99.90;;;;;;5125324;28;20297;-45
2023/11/04 00:08:47;;;;;;;5.78;2.47;;;7.30;99.90;;;;;;5124812;28;20027;-45
2023/11/04 00:11:13;;;;;;;6.70;2.80;;;7.30;99.90;;;;;;5125613;28;20034;-46
2023/11/04 00:13:39;;;;;;;7.05;2.13;;;7.20;99.90;;;;;;5107496;28;20038;-45
2023/11/04 00:16:08;;;;;;;5.18;2.08;;;7.20;99.90;;;;;;5125407;28;20035;-46
2023/11/04 00:18:34;;;;;;;7.00;2.47;;;7.20;99.90;;;;;;5125566;28;20027;-48
2023/11/04 00:21:00;;;;;;;5.95;2.17;;;7.20;99.90;;;;;;5125561;28;20097;-49
2023/11/04 00:23:26;;;;;;;7.10;2.03;;;7.10;99.90;;;;;;5125505;28;20336;-49
2023/11/04 00:25:51;;;;;;;7.63;1.90;;;7.10;99.90;;;;;;5125421;28;20329;-49
2023/11/04 00:28:19;;;;;;;6.82;2.08;;;7.10;99.90;;;;;;5127763;28;20051;-49
2023/11/04 00:30:44;;;;;;;6.90;1.80;;;7.10;99.90;;;;;;5129176;28;20035;-49
2023/11/04 00:33:10;;;;;;;9.32;2.28;;;6.90;99.90;;;;;;5128660;28;20019;-49
2023/11/04 00:35:36;;;;;;;5.75;2.25;;;6.80;99.90;;;;;;5127824;28;20023;-49
2023/11/04 00:38:01;;;;;;;6.45;2.28;;;6.80;99.90;;;;;;5128965;28;20027;-49
2023/11/04 00:40:27;;;;;;;8.60;1.83;;;6.90;99.90;;;;;;5129101;28;20054;-49
2023/11/04 00:42:54;;;;;;;5.28;2.13;;;6.80;99.90;;;;;;5128055;28;20088;-49
2023/11/04 00:45:19;;;;;;;7.43;1.90;;;6.60;99.90;;;;;;5128822;28;20243;-49
2023/11/04 00:47:45;;;;;;;6.78;2.28;;;6.50;99.90;;;;;;5128645;28;20027;-49
2023/11/04 00:50:11;;;;;;;7.13;3.78;;;6.60;99.90;;;;;;5128760;28;20028;-50
2023/11/04 00:52:37;;;;;;;10.85;2.50;;;6.60;99.90;;;;;;5110974;28;20031;-49
2023/11/04 00:55:03;;;;;;;3.58;2.50;;;6.70;99.90;;;;;;5128850;28;20028;-49
2023/11/04 00:57:28;;;;;;;8.63;2.40;;;6.70;99.90;;;;;;5128476;28;20055;-49
2023/11/04 00:59:54;;;;;;;5.13;2.65;;;6.70;99.90;;;;;;5128511;28;20031;-49
2023/11/04 01:02:20;;;;;;;6.95;2.50;;;6.70;99.90;;;;;;5128612;28;20049;-45
2023/11/04 01:04:45;;;;;;;6.13;2.55;;;6.80;99.90;;;;;;5128813;28;20321;-47
2023/11/04 01:07:11;;;;;;;4.38;2.05;;;6.80;99.90;;;;;;5128279;28;20191;-46
2023/11/04 01:09:37;;;;;;;8.68;2.42;;;6.60;99.90;;;;;;5128321;28;20043;-45
2023/11/04 01:12:04;;;;;;;7.85;2.40;;;6.60;99.90;;;;;;5127413;28;20076;-46
2023/11/04 01:14:29;;;;;;;8.13;3.10;;;6.70;99.90;;;;;;5128384;28;20264;-49
2023/11/04 01:16:55;;;;;;;5.85;2.13;;;6.70;99.90;;;;;;5128383;28;20028;-49
2023/11/04 01:19:21;;;;;;;6.88;1.85;;;6.80;99.90;;;;;;5128498;28;20352;-49
2023/11/04 01:21:46;;;;;;;6.10;3.00;;;6.60;99.90;;;;;;5127232;28;20296;-48
2023/11/04 01:24:12;;;;;;;4.50;1.95;;;6.60;99.90;;;;;;5128157;28;20070;-49
2023/11/04 01:26:39;;;;;;;6.07;2.00;;;6.60;99.90;;;;;;5128288;28;20093;-49
2023/11/04 01:29:04;;;;;;;6.05;2.13;;;6.60;99.90;;;;;;5128133;28;20284;-49
2023/11/04 01:31:30;;;;;;;4.68;2.40;;;6.60;99.90;;;;;;5128322;28;20107;-48
2023/11/04 01:33:56;;;;;;;5.57;1.88;;;6.70;99.90;;;;;;5127889;28;20039;-48
2023/11/04 01:36:21;;;;;;;6.63;2.70;;;6.70;99.90;;;;;;5127621;28;20047;-49
2023/11/04 01:38:47;;;;;;;7.18;1.98;;;6.70;99.90;;;;;;5126588;28;20031;-48
2023/11/04 01:41:13;;;;;;;4.32;2.20;;;6.70;99.90;;;;;;5128012;28;20037;-49
2023/11/04 01:43:39;;;;;;;6.65;2.22;;;6.70;99.90;;;;;;5127877;28;20032;-49
2023/11/04 01:46:18;;;;;;;5.13;2.10;;;6.60;99.90;;;;;;5126763;28;20027;-49
2023/11/04 01:48:43;;;;;;;6.15;2.70;;;6.50;99.90;;;;;;5127834;28;20189;-49
2023/11/04 01:51:09;;;;;;;9.00;2.38;;;6.50;99.90;;;;;;5126537;28;20030;-49
2023/11/04 01:53:36;;;;;;;6.30;2.25;;;6.60;99.90;;;;;;5127618;28;20026;-49
2023/11/04 01:56:03;;;;;;;8.98;2.65;;;6.60;99.90;;;;;;5126522;28;20039;-46
2023/11/04 01:58:29;;;;;;;6.80;2.20;;;6.50;99.90;;;;;;5109713;28;20024;-47
2023/11/04 02:00:55;;;;;;;4.35;1.92;;;6.60;99.90;;;;;;5126581;28;20034;-46
2023/11/04 02:03:20;;;;;;;10.43;2.30;;;6.70;99.90;;;;;;5127064;28;20038;-46
2023/11/04 02:05:46;;;;;;;6.22;1.95;;;6.70;99.90;;;;;;5127263;28;20032;-48
2023/11/04 02:08:12;;;;;;;5.57;2.03;;;6.70;99.90;;;;;;5126011;28;20108;-48
2023/11/04 02:10:38;;;;;;;6.22;2.03;;;6.60;99.90;;;;;;5127302;28;20047;-49
2023/11/04 02:13:04;;;;;;;7.50;2.33;;;6.50;99.90;;;;;;5127351;28;20039;-48
2023/11/04 02:15:29;;;;;;;6.63;2.20;;;6.60;99.90;;;;;;5126126;28;20092;-52
2023/11/04 02:17:55;;;;;;;7.05;2.05;;;6.70;99.90;;;;;;5127021;28;20050;-52
2023/11/04 02:20:21;;;;;;;5.85;2.00;;;6.70;99.90;;;;;;5127306;28;20023;-52
2023/11/04 02:22:47;;;;;;;6.53;2.22;;;6.70;99.90;;;;;;5109038;28;20080;-52
2023/11/04 02:25:15;;;;;;;7.15;2.40;;;6.70;99.90;;;;;;5126142;28;20031;-52
2023/11/04 02:27:44;;;;;;;5.28;1.92;;;6.70;99.90;;;;;;5125898;28;20299;-51
2023/11/04 02:30:11;;;;;;;7.47;2.28;;;6.70;99.90;;;;;;5126016;28;20024;-51
2023/11/04 02:32:38;;;;;;;9.45;2.20;;;6.70;99.90;;;;;;5126872;28;20030;-51
2023/11/04 02:35:04;;;;;;;5.70;2.08;;;6.60;99.90;;;;;;5125931;28;20056;-51
2023/11/04 02:37:31;;;;;;;5.55;1.90;;;6.60;99.90;;;;;;5127035;28;20047;-52
2023/11/04 02:39:56;;;;;;;4.40;1.90;;;6.60;99.90;;;;;;5126346;28;20196;-51
2023/11/04 02:42:22;;;;;;;6.03;1.90;;;6.50;99.90;;;;;;5126697;28;20028;-54
2023/11/04 02:44:48;;;;;;;4.88;2.33;;;6.50;99.90;;;;;;5125680;28;20216;-51
2023/11/04 02:47:13;;;;;;;5.50;2.38;;;6.40;99.90;;;;;;5126295;28;20039;-52
2023/11/04 02:49:39;;;;;;;5.07;1.98;;;6.40;99.90;;;;;;5125948;28;20032;-49
2023/11/04 02:52:05;;;;;;;5.57;2.22;;;6.50;99.90;;;;;;5126555;28;20023;-51
2023/11/04 02:54:30;;;;;;;6.45;2.22;;;6.50;99.90;;;;;;5126157;28;20031;-52
2023/11/04 02:56:56;;;;;;;8.88;1.80;;;6.50;99.90;;;;;;5126481;28;20031;-52
2023/11/04 02:59:22;;;;;;;11.60;2.30;;;6.60;99.90;;;;;;5125549;28;20035;-51
2023/11/04 03:01:47;;;;;;;6.30;1.50;;;6.60;99.90;;;;;;5126578;28;20038;-51
2023/11/04 03:04:13;;;;;;;7.20;1.85;;;6.60;99.90;;;;;;5126439;28;20102;-47
2023/11/04 03:06:39;;;;;;;6.18;1.67;;;6.60;99.90;;;;;;5126081;28;20055;-49
2023/11/04 03:09:06;;;;;;;4.63;1.80;;;6.60;99.90;;;;;;5126155;28;20209;-48
2023/11/04 03:11:31;;;;;;;6.55;1.95;;;6.50;99.90;;;;;;5126096;28;20085;-51
2023/11/04 03:13:57;;;;;;;8.27;1.98;;;6.60;99.90;;;;;;5126118;28;20039;-50
2023/11/04 03:16:23;;;;;;;4.05;1.80;;;6.60;99.90;;;;;;5126155;28;20041;-51
2023/11/04 03:18:49;;;;;;;5.63;1.63;;;6.60;99.90;;;;;;5126324;28;20070;-51
2023/11/04 03:21:15;;;;;;;7.93;1.90;;;6.60;99.90;;;;;;5125849;28;20207;-51
2023/11/04 03:23:41;;;;;;;5.80;1.70;;;6.60;99.90;;;;;;5126272;28;20046;-52
2023/11/04 03:26:10;;;;;;;4.15;1.50;;;6.50;99.90;;;;;;5107943;28;20063;-50
2023/11/04 03:28:36;;;;;;;5.40;1.55;;;6.50;99.90;;;;;;5126110;28;20027;-51
2023/11/04 03:31:03;;;;;;;3.38;1.50;;;6.60;99.90;;;;;;5125679;28;20070;-52
2023/11/04 03:33:29;;;;;;;6.10;1.85;;;6.50;99.90;;;;;;5124853;28;20051;-52
2023/11/04 03:35:55;;;;;;;4.38;1.52;;;6.50;99.90;;;;;;5125915;28;20069;-51
2023/11/04 03:38:20;;;;;;;6.05;1.80;;;6.50;99.90;;;;;;5125910;28;20077;-51
2023/11/04 03:40:46;;;;;;;7.60;1.90;;;6.50;99.90;;;;;;5126055;28;20039;-51
2023/11/04 03:43:12;;;;;;;7.05;1.85;;;6.50;99.90;;;;;;5125962;28;20332;-51
2023/11/04 03:45:37;;;;;;;9.35;1.60;;;6.60;99.90;;;;;;5125751;28;20192;-52
2023/11/04 03:48:03;;;;;;;5.78;1.90;;;6.60;99.90;;;;;;5125704;28;20031;-51
2023/11/04 03:50:29;;;;;;;4.63;1.83;;;6.60;99.90;;;;;;5125883;28;20050;-52
2023/11/04 03:52:55;;;;;;;5.28;1.52;;;6.60;99.90;;;;;;5126440;28;20046;-51
2023/11/04 03:55:21;;;;;;;4.68;1.60;;;6.70;99.90;;;;;;5124952;28;20095;-53
2023/11/04 03:57:47;;;;;;;5.35;1.60;;;6.70;99.90;;;;;;5125414;28;20098;-52
2023/11/04 04:00:14;;;;;;;4.25;1.60;;;6.70;99.90;;;;;;5125836;28;20350;-50
2023/11/04 04:02:40;;;;;;;5.78;1.45;;;6.70;99.90;;;;;;5128962;28;20031;-52
2023/11/04 04:05:06;;;;;;;3.28;1.10;;;6.70;99.90;;;;;;5129903;28;20026;-52
2023/11/04 04:07:33;;;;;;;4.60;1.48;;;6.70;99.90;;;;;;5129400;28;20076;-52
2023/11/04 04:09:59;;;;;;;6.43;1.48;;;6.70;99.90;;;;;;5129689;28;20027;-52
2023/11/04 04:12:25;;;;;;;7.03;1.70;;;6.70;99.90;;;;;;5129590;28;20023;-51
2023/11/04 04:14:50;;;;;;;6.30;1.40;;;6.70;99.90;;;;;;5129624;28;20043;-51
2023/11/04 04:17:16;;;;;;;3.78;1.58;;;6.70;99.90;;;;;;5129231;28;20028;-52
2023/11/04 04:19:41;;;;;;;3.83;1.58;;;6.70;99.90;;;;;;5129349;28;20212;-52
2023/11/04 04:22:08;;;;;;;4.60;1.40;;;6.80;99.90;;;;;;5128488;28;20311;-51
2023/11/04 04:24:33;;;;;;;6.45;1.67;;;6.90;99.90;;;;;;5129481;28;20054;-51
2023/11/04 04:26:59;;;;;;;4.18;1.52;;;7.00;99.90;;;;;;5129426;28;20024;-51
2023/11/04 04:29:27;;;;;;;3.13;1.40;;;7.00;99.90;;;;;;5128014;28;20027;-51
2023/11/04 04:31:53;;;;;;;6.60;1.92;;;7.10;99.90;;;;;;5128104;28;20023;-52
2023/11/04 04:34:19;;;;;;;4.13;1.58;;;7.10;99.90;;;;;;5129158;28;20042;-52
2023/11/04 04:36:47;;;;;;;8.60;1.90;;;7.10;99.90;;;;;;5129343;28;20035;-53
2023/11/04 04:39:13;;;;;;;3.35;1.40;;;7.10;99.90;;;;;;5129234;28;20043;-52
2023/11/04 04:41:38;;;;;;;4.03;1.55;;;7.10;99.90;;;;;;5128185;28;20304;-53
2023/11/04 04:44:04;;;;;;;6.15;1.90;;;7.10;99.90;;;;;;5129196;28;20373;-52
2023/11/04 04:46:31;;;;;;;4.57;1.20;;;7.10;99.90;;;;;;5129160;28;20046;-52
2023/11/04 04:48:58;;;;;;;5.28;1.50;;;7.10;99.90;;;;;;5127599;28;20027;-52
2023/11/04 04:51:23;;;;;;;4.07;1.50;;;7.20;99.90;;;;;;5128027;28;20095;-51
2023/11/04 04:53:49;;;;;;;4.72;1.40;;;7.20;99.90;;;;;;5127918;28;20277;-52
2023/11/04 04:56:15;;;;;;;4.53;1.60;;;7.30;99.90;;;;;;5128746;28;20057;-52
2023/11/04 04:58:43;;;;;;;6.43;1.38;;;7.30;99.90;;;;;;5110870;28;20031;-52
2023/11/04 05:01:19;;;;;;;4.38;1.33;;;7.30;99.90;;;;;;5128213;28;20051;-52
2023/11/04 05:03:45;;;;;;;3.92;1.55;;;7.30;99.90;;;;;;5128844;28;20035;-53
2023/11/04 05:06:10;;;;;;;4.28;1.55;;;7.30;99.90;;;;;;5128274;28;20023;-52
2023/11/04 05:08:36;;;;;;;6.03;1.75;;;7.30;99.90;;;;;;5128559;28;20226;-52
2023/11/04 05:11:02;;;;;;;4.43;1.80;;;7.30;99.90;;;;;;5128603;28;20293;-51
2023/11/04 05:13:28;;;;;;;5.30;1.48;;;7.30;99.90;;;;;;5127731;28;20281;-52
2023/11/04 05:15:54;;;;;;;4.00;1.50;;;7.30;99.90;;;;;;5128403;28;20020;-52
2023/11/04 05:18:20;;;;;;;4.30;1.30;;;7.20;99.90;;;;;;5128038;28;20046;-52
2023/11/04 05:20:46;;;;;;;5.90;1.50;;;7.20;99.90;;;;;;5128417;28;20031;-54
2023/11/04 05:23:12;;;;;;;3.88;1.50;;;7.20;99.90;;;;;;5128386;28;20020;-53
2023/11/04 05:25:38;;;;;;;4.20;1.40;;;7.20;99.90;;;;;;5128231;28;20240;-52
2023/11/04 05:28:04;;;;;;;2.80;1.30;;;7.10;99.90;;;;;;5127017;28;20036;-52
2023/11/04 05:30:30;;;;;;;5.40;1.50;;;7.20;99.90;;;;;;5127099;28;20098;-52
2023/11/04 05:33:00;;;;;;;3.15;1.45;;;7.10;99.90;;;;;;5127578;28;20027;-52
2023/11/04 05:35:26;;;;;;;4.32;1.60;;;7.10;99.90;;;;;;5128007;28;20035;-52
2023/11/04 05:37:52;;;;;;;6.90;1.52;;;7.10;99.90;;;;;;5127984;28;20039;-53
2023/11/04 05:40:17;;;;;;;3.90;1.42;;;7.10;99.90;;;;;;5127989;28;20031;-52
2023/11/04 05:42:43;;;;;;;4.90;1.40;;;7.10;99.90;;;;;;5127997;28;20049;-53
2023/11/04 05:45:09;;;;;;;3.95;1.33;;;7.20;99.90;;;;;;5127950;28;20211;-52
2023/11/04 05:47:35;;;;;;;3.15;1.75;;;7.20;99.90;;;;;;5127685;28;20031;-52
2023/11/04 05:50:01;;;;;;;4.47;1.50;;;7.30;99.90;;;;;;5127640;28;20078;-53
2023/11/04 05:52:27;;;;;;;3.22;1.00;;;7.50;99.90;;;;;;5126576;28;20185;-51
2023/11/04 05:54:53;;;;;;;3.95;1.10;;;7.50;99.90;;;;;;5127706;28;20027;-53
2023/11/04 05:57:19;;;;;;;2.97;1.20;;;7.60;99.90;;;;;;5126383;28;20035;-50
2023/11/04 05:59:45;;;;;;;5.47;1.65;;;7.70;99.90;;;;;;5127275;28;20043;-53
2023/11/04 06:02:11;;;;;;;1.20;0.93;;;7.80;99.90;;;;;;5127398;28;20038;-51
2023/11/04 06:04:37;;;;;;;3.72;0.90;;;7.90;99.90;;;;;;5127485;28;20043;-52
2023/11/04 06:07:02;;;;;;;2.33;1.10;;;8.00;99.90;;;;;;5126798;28;20102;-51
2023/11/04 06:09:28;;;;;;;3.13;1.20;;;8.20;99.90;;;;;;5127258;27;20035;-52
2023/11/04 06:11:54;;;;;;;4.88;1.13;;;8.30;99.90;;;;;;5126566;28;20231;-52
2023/11/04 06:14:20;;;;;;;4.82;1.05;;;8.30;99.90;;;;;;5127106;28;20027;-52
2023/11/04 06:16:46;;;;;;;4.30;1.08;;;8.40;99.90;;;;;;5127260;28;20024;-53
2023/11/04 06:19:12;;;;;;;4.55;1.10;;;8.40;99.90;;;;;;5126290;28;20039;-52
2023/11/04 06:21:37;;;;;;;4.97;1.10;;;8.40;99.90;;;;;;5126731;28;20092;-52
2023/11/04 06:24:03;;;;;;;3.97;1.02;;;8.40;99.90;;;;;;5125873;28;20066;-52
2023/11/04 06:26:29;;;;;;;3.20;1.00;;;8.40;99.90;;;;;;5125156;28;20124;-52
2023/11/04 06:28:54;;;;;;;2.08;1.00;;;8.40;99.90;;;;;;5126821;28;20043;-53
2023/11/04 06:31:22;;;;;;;4.80;1.30;;;8.40;99.90;;;;;;5125734;28;20108;-52
2023/11/04 06:33:48;;;;;;;3.42;1.30;;;8.40;99.90;;;;;;5125654;28;20038;-52
2023/11/04 06:36:14;;;;;;;4.57;0.98;;;8.40;99.90;;;;;;5126390;28;20278;-52
2023/11/04 06:38:40;;;;;;;4.45;1.70;;;8.30;99.90;;;;;;5126827;28;20032;-53
2023/11/04 06:41:20;;;;;;;2.80;1.20;;;8.30;99.90;;;;;;5126802;28;20027;-53
2023/11/04 06:43:46;;;;;;;1.33;1.00;;;8.30;99.90;;;;;;5126708;28;20027;-53
2023/11/04 06:46:12;;;;;;;2.20;0.90;;;8.30;99.90;;;;;;5126498;28;20070;-53
2023/11/04 06:48:38;;;;;;;2.90;1.10;;;8.20;99.90;;;;;;5125645;28;20045;-53
2023/11/04 06:51:04;;;;;;;3.20;1.55;;;8.20;99.90;;;;;;5126489;28;20055;-53
2023/11/04 06:53:30;;;;;;;3.17;1.10;;;8.20;99.90;;;;;;5125457;28;20091;-53
2023/11/04 06:55:58;;;;;;;3.60;1.55;;;8.10;99.90;;;;;;5126390;28;20181;-53
2023/11/04 06:58:26;;;;;;;3.63;1.20;;;8.10;99.90;;;;;;5126384;28;20041;-53
2023/11/04 07:00:52;;;;;;;2.33;1.13;;;8.10;99.90;;;;;;5126435;28;20031;-52
2023/11/04 07:03:18;;;;;;;2.85;1.27;;;8.10;99.90;;;;;;5125238;28;20031;-52
2023/11/04 07:05:44;;;;;;;4.63;1.45;;;8.10;99.90;;;;;;5126319;28;20039;-52
2023/11/04 07:08:16;;;;;;;6.50;1.58;;;8.10;99.90;;;;;;5126033;28;20039;-50
2023/11/04 07:10:42;;;;;;;2.65;1.30;;;8.10;99.90;;;;;;5126403;28;20284;-53
2023/11/04 07:13:14;;;;;;;3.88;1.50;;;8.10;99.90;;;;;;5126325;28;20167;-52
2023/11/04 07:15:44;;;;;;;5.65;2.10;;;8.10;99.90;;;;;;5126386;28;20032;-52
2023/11/04 07:18:14;;;;;;;4.20;1.40;;;8.10;99.90;;;;;;5126139;28;20035;-53
2023/11/04 07:20:39;;;;;;;;;;;8.10;99.90;;;;;;5125671;28;20301;-53
2023/11/04 07:23:07;;;;;;;4.20;1.25;;;8.10;99.90;;;;;;5126222;28;19961;-51
2023/11/04 07:25:34;;;;;;;3.63;1.65;;;8.10;99.90;;;;;;5125443;28;20023;-53
2023/11/04 07:28:00;;;;;;;5.45;2.17;;;8.20;99.90;;;;;;5125880;28;20059;-53
2023/11/04 07:30:25;;;;;;;4.35;1.50;;;8.20;99.90;;;;;;5126012;28;20060;-52
2023/11/04 07:32:51;;;;;;;3.33;1.30;;;8.20;99.90;;;;;;5125932;28;20080;-51
2023/11/04 07:35:17;;;;;;;2.13;1.23;;;8.20;99.90;;;;;;5125953;28;20027;-52
2023/11/04 07:37:43;;;;;;;4.25;1.35;;;8.30;99.90;;;;;;5129374;28;20161;-52
2023/11/04 07:40:09;;;;;;;3.95;1.85;;;8.30;99.90;;;;;;5129763;28;20112;-53
2023/11/04 07:42:38;;;;;;;2.97;1.60;;;8.30;99.90;;;;;;5130026;28;20051;-52
2023/11/04 07:45:04;;;;;;;4.95;2.10;;;8.30;99.90;;;;;;5130148;28;20277;-53
2023/11/04 07:47:30;;;;;;;4.55;1.67;;;8.30;99.90;;;;;;5129901;28;20044;-53
2023/11/04 07:49:55;;;;;;;5.15;2.40;;;8.30;99.90;;;;;;5129114;28;20180;-54
2023/11/04 07:52:21;;;;;;;5.45;1.63;;;8.40;99.90;;;;;;5130010;28;20024;-53
2023/11/04 07:54:47;;;;;;;5.72;1.88;;;8.40;99.90;;;;;;5129998;28;20039;-52
2023/11/04 07:57:12;;;;;;;2.88;1.50;;;8.40;99.90;;;;;;5129447;28;20027;-53
2023/11/04 07:59:38;;;;;;;3.25;1.98;;;8.40;99.90;;;;;;5128822;28;20181;-55
2023/11/04 08:02:05;;;;;;;4.32;2.00;;;8.40;99.90;;;;;;5129558;28;20034;-51
2023/11/04 08:04:30;;;;;;;3.67;1.77;;;8.50;99.90;;;;;;5128419;28;20035;-53
2023/11/04 08:06:56;;;;;;;3.90;1.73;;;8.50;99.90;;;;;;5128406;28;20044;-52
2023/11/04 08:09:22;;;;;;;7.75;2.45;;;8.50;99.90;;;;;;5129641;28;20032;-54
2023/11/04 08:11:47;;;;;;;10.88;4.45;;;8.50;99.90;;;;;;5128348;28;20249;-54
2023/11/04 08:14:13;;;;;;;5.78;2.30;;;8.50;99.90;;;;;;5129499;28;20045;-53
2023/11/04 08:16:39;;;;;;;9.23;2.67;;;8.60;99.90;;;;;;5128674;28;20061;-53
2023/11/04 08:19:07;;;;;;;4.90;1.73;;;8.60;99.90;;;;;;5129562;28;20094;-52
2023/11/04 08:21:33;;;;;;;5.43;1.90;;;8.60;99.90;;;;;;5128568;28;20311;-51
2023/11/04 08:23:59;;;;;;;3.10;1.75;;;8.60;99.90;;;;;;5128538;28;20027;-53
2023/11/04 08:26:25;;;;;;;4.97;1.77;;;8.60;99.90;;;;;;5128160;28;20069;-54
2023/11/04 08:28:51;;;;;;;7.18;2.90;;;8.70;99.90;;;;;;5129290;28;20032;-50
2023/11/04 08:31:18;;;;;;;5.20;1.70;;;8.80;99.90;;;;;;5129137;28;20031;-53
2023/11/04 08:33:44;;;;;;;5.60;2.33;;;8.80;99.90;;;;;;5129232;28;20084;-53
2023/11/04 08:36:10;;;;;;;5.80;2.58;;;8.90;99.90;;;;;;5129035;28;20019;-50
2023/11/04 08:38:36;;;;;;;3.05;1.70;;;9.00;99.90;;;;;;5129191;28;20345;-54
2023/11/04 08:41:02;;;;;;;6.63;2.10;;;9.10;99.90;;;;;;5129058;28;20091;-52
2023/11/04 08:43:28;;;;;;;4.75;2.17;;;9.10;99.90;;;;;;5128831;28;20023;-50
2023/11/04 08:45:54;;;;;;;4.10;1.95;;;9.20;99.90;;;;;;5128887;28;20099;-53
2023/11/04 08:48:19;;;;;;;7.38;2.65;;;9.20;99.90;;;;;;5127694;28;20051;-50
2023/11/04 08:50:45;;;;;;;5.50;3.30;;;9.20;99.90;;;;;;5128704;28;20076;-50
2023/11/04 08:53:11;;;;;;;7.60;3.17;;;9.30;99.90;;;;;;5128949;28;20208;-52
2023/11/04 08:55:37;;;;;;;5.60;2.55;;;9.30;99.90;;;;;;5128425;28;20288;-50
2023/11/04 08:58:02;;;;;;;7.13;3.30;;;9.30;99.90;;;;;;5128315;28;20019;-50
2023/11/04 09:00:29;;;;;;;3.97;1.70;;;9.30;99.90;;;;;;5128540;28;20039;-50
2023/11/04 09:02:55;;;;;;;3.83;1.70;;;9.40;99.90;;;;;;5128514;28;20281;-54
2023/11/04 09:05:21;;;;;;;10.00;2.03;;;9.40;99.90;;;;;;5127278;28;20046;-52
2023/11/04 09:07:47;;;;;;;6.28;2.08;;;9.40;99.90;;;;;;5128171;28;20055;-52
2023/11/04 09:10:13;;;;;;;4.90;1.95;;;9.30;99.90;;;;;;5128709;28;20193;-51
2023/11/04 09:12:39;;;;;;;10.85;2.05;;;9.40;99.90;;;;;;5128567;28;20020;-51
2023/11/04 09:15:05;;;;;;;6.25;2.50;;;9.30;99.90;;;;;;5127985;28;20038;-52
2023/11/04 09:17:31;;;;;;;5.90;2.13;;;9.40;99.90;;;;;;5128403;28;20023;-51
2023/11/04 09:19:57;;;;;;;9.25;2.97;;;9.40;99.90;;;;;;5128565;28;20165;-51
2023/11/04 09:22:23;;;;;;;5.85;1.90;;;9.40;99.90;;;;;;5110312;28;20076;-53
2023/11/04 09:24:49;;;;;;;5.38;1.80;;;9.40;99.90;;;;;;5128194;28;20291;-52
2023/11/04 09:27:14;;;;;;;4.07;1.55;;;9.40;99.90;;;;;;5126749;28;20027;-55
2023/11/04 09:29:40;;;;;;;3.95;1.30;;;9.50;99.90;;;;;;5128241;28;20153;-54
2023/11/04 09:32:06;;;;;;;4.57;1.45;;;9.50;99.90;;;;;;5127917;28;20028;-54
2023/11/04 09:34:31;;;;;;;4.70;1.83;;;9.60;99.90;;;;;;5128029;28;20054;-53
2023/11/04 09:36:57;;;;;;;3.25;1.30;;;9.60;99.90;;;;;;5127997;28;20027;-54
2023/11/04 09:39:23;;;;;;;3.85;1.42;;;9.50;99.90;;;;;;5128081;28;20099;-55
2023/11/04 09:41:51;;;;;;;4.50;1.63;;;9.50;99.90;;;;;;5127713;28;20042;-54
2023/11/04 09:44:18;;;;;;;3.50;1.67;;;9.50;99.90;;;;;;5126642;28;20043;-54
2023/11/04 09:46:44;;;;;;;3.53;1.50;;;9.50;99.90;;;;;;5126566;28;20054;-54
2023/11/04 09:49:10;;;;;;;2.00;1.10;;;9.40;99.90;;;;;;5127210;28;20023;-54
2023/11/04 09:51:36;;;;;;;6.40;1.50;;;9.40;99.90;;;;;;5127558;28;20032;-55
2023/11/04 09:54:02;;;;;;;2.63;1.50;;;9.40;99.90;;;;;;5126960;28;20268;-54
2023/11/04 09:56:28;;;;;;;2.35;1.40;;;9.40;99.90;;;;;;5126510;28;20031;-55
2023/11/04 09:58:54;;;;;;;3.42;1.75;;;9.40;99.90;;;;;;5126694;28;20035;-53
2023/11/04 10:01:19;;;;;;;3.55;1.50;;;9.40;99.90;;;;;;5127245;28;20093;-54
2023/11/04 10:03:46;;;;;;;5.53;1.40;;;9.40;99.90;;;;;;5127205;28;20024;-52
2023/11/04 10:06:16;;;;;;;3.25;1.50;;;9.40;99.90;;;;;;5125958;28;20031;-54
2023/11/04 10:08:42;;;;;;;3.60;1.25;;;9.30;99.90;;;;;;5127205;28;20035;-55
2023/11/04 10:11:08;;;;;;;4.00;1.40;;;9.30;99.90;;;;;;5126021;28;20069;-55
2023/11/04 10:13:34;;;;;;;4.13;1.60;;;9.30;99.90;;;;;;5126789;28;20051;-54
2023/11/04 10:15:59;;;;;;;4.88;2.13;;;9.30;99.90;;;;;;5126858;28;20039;-54
2023/11/04 10:18:25;;;;;;;2.72;1.42;;;9.30;99.90;;;;;;5127095;28;20057;-54
2023/11/04 10:20:51;;;;;;;6.53;2.53;;;9.30;99.90;;;;;;5125877;28;20027;-54
2023/11/04 10:23:17;;;;;;;5.22;3.00;;;9.30;99.90;;;;;;5126686;28;20308;-54
2023/11/04 10:25:42;;;;;;;7.10;3.08;;;9.40;99.90;;;;;;5126473;28;20027;-54
2023/11/04 10:28:09;;;;;;;2.65;1.48;;;9.30;99.90;;;;;;5125728;28;20103;-52
2023/11/04 10:30:37;;;;;;;3.47;1.67;;;9.30;99.90;;;;;;5125871;28;20094;-52
2023/11/04 10:33:09;;;;;;;4.50;1.83;;;9.30;99.90;;;;;;5126556;28;20174;-51
2023/11/04 10:35:35;;;;;;;2.25;1.17;;;9.30;99.90;;;;;;5126451;28;20061;-53
2023/11/04 10:38:05;;;;;;;2.22;1.50;;;9.30;99.90;;;;;;5125332;28;20035;-52
2023/11/04 10:40:31;;;;;;;2.90;1.45;;;9.30;99.90;;;;;;5125618;28;20035;-52
2023/11/04 10:43:02;;;;;;;2.50;1.20;;;9.20;99.90;;;;;;5125395;28;20042;-53
2023/11/04 10:45:30;;;;;;;4.28;1.55;;;9.20;99.90;;;;;;5126114;28;20034;-52
2023/11/04 10:47:59;;;;;;;4.05;1.88;;;9.20;99.90;;;;;;5108562;28;20316;-54
2023/11/04 10:50:28;;;;;;;2.60;1.73;;;9.20;99.90;;;;;;5108402;28;20350;-53
2023/11/04 10:53:03;;;;;;;3.53;1.60;;;9.10;99.90;;;;;;5125256;28;20034;-53
2023/11/04 10:55:31;;;;;;;5.57;2.15;;;9.10;99.90;;;;;;5126569;28;20196;-55
2023/11/04 10:58:08;;;;;;;4.18;1.70;;;9.10;99.90;;;;;;5125246;28;20052;-54
2023/11/04 11:00:34;;;;;;;3.95;1.85;;;9.10;99.90;;;;;;5125224;28;20058;-54
2023/11/04 11:03:00;;;;;;;3.63;2.58;;;9.10;99.90;;;;;;5126055;28;20099;-54
2023/11/04 11:05:25;;;;;;;3.55;1.75;;;9.10;99.90;;;;;;5125234;28;20032;-54
2023/11/04 11:07:52;;;;;;;2.40;1.33;;;9.20;99.90;;;;;;5124481;28;20313;-52
2023/11/04 11:10:21;;;;;;;4.13;1.40;;;9.10;99.90;;;;;;5125911;28;20087;-54
2023/11/04 11:12:50;;;;;;;4.00;1.70;;;9.20;99.90;;;;;;5124735;28;20145;-54
2023/11/04 11:15:16;;;;;;;2.80;1.25;;;9.10;99.90;;;;;;5124627;28;20077;-54
2023/11/04 11:17:42;;;;;;;4.95;2.20;;;9.10;99.90;;;;;;5091043;28;20027;-54
2023/11/04 11:20:27;;;;;;;4.07;1.70;;;9.10;99.90;;;;;;5126095;28;20265;-54
2023/11/04 11:23:01;;;;;;;3.10;1.38;;;9.10;99.90;;;;;;5125499;28;20039;-55
2023/11/04 11:25:33;;;;;;;4.20;1.70;;;9.10;99.90;;;;;;5125522;28;20024;-54
2023/11/04 11:28:00;;;;;;;3.08;1.70;;;9.10;99.90;;;;;;5125485;28;20032;-55
2023/11/04 11:30:38;;;;;;;2.25;1.27;;;9.10;99.90;;;;;;5125667;28;20073;-55
2023/11/04 11:33:07;;;;;;;3.38;1.58;;;9.10;99.90;;;;;;5124483;28;20035;-54
2023/11/04 11:35:58;;;;;;;4.90;1.60;;;9.10;99.90;;;;;;5124563;28;20166;-54
2023/11/04 11:38:31;;;;;;;3.42;1.52;;;9.10;99.90;;;;;;5125907;28;20062;-54
2023/11/04 11:41:05;;;;;;;7.00;2.95;;;9.00;99.90;;;;;;5124411;28;20015;-55
2023/11/04 11:43:31;;;;;;;8.75;3.72;;;9.00;99.90;;;;;;5125477;28;20389;-54
2023/11/04 11:45:58;;;;;;;11.10;3.60;;;8.90;99.90;;;;;;5125843;28;20032;-54
2023/11/04 11:48:24;;;;;;;10.48;3.20;;;8.90;99.90;;;;;;5125536;28;20395;-53
2023/11/04 11:50:50;;;;;;;8.38;2.80;;;8.80;99.90;;;;;;5125892;28;20039;-55
2023/11/04 11:53:15;;;;;;;5.55;2.50;;;8.80;99.90;;;;;;5125105;28;20034;-54
2023/11/04 11:55:41;;;;;;;8.68;3.53;;;8.80;99.90;;;;;;5124560;28;20027;-55
2023/11/04 11:58:07;;;;;;;7.65;3.90;;;8.70;99.90;;;;;;5125614;28;20050;-53
2023/11/04 12:00:34;;;;;;;3.08;1.98;;;8.60;99.90;;;;;;5124584;28;20028;-48
2023/11/04 12:03:00;;;;;;;7.80;3.80;;;8.60;99.90;;;;;;5124582;28;20032;-53
2023/11/04 12:05:26;;;;;;;3.95;1.60;;;8.60;99.90;;;;;;5107526;28;20092;-54
2023/11/04 12:07:52;;;;;;;5.03;2.15;;;8.50;99.90;;;;;;5125203;28;20242;-54
2023/11/04 12:10:17;;;;;;;3.95;2.35;;;8.50;99.90;;;;;;5125577;28;20023;-51
2023/11/04 12:12:48;;;;;;;7.70;3.40;;;8.50;99.90;;;;;;5124943;28;20091;-52
2023/11/04 12:15:14;;;;;;;6.15;3.55;;;8.60;99.90;;;;;;5108217;28;20272;-52
2023/11/04 12:17:40;;;;;;;3.58;3.00;;;8.60;99.90;;;;;;5124565;28;20051;-52
2023/11/04 12:20:09;;;;;;;5.88;3.10;;;8.60;99.90;;;;;;5125301;28;20224;-52
2023/11/04 12:22:35;;;;;;;3.97;2.78;;;8.60;99.90;;;;;;5125617;28;20128;-53
2023/11/04 12:25:01;;;;;;;3.97;2.88;;;8.60;99.90;;;;;;5128164;28;20285;-53
2023/11/04 12:27:27;;;;;;;3.90;2.90;;;8.60;99.90;;;;;;5129027;28;20077;-51
2023/11/04 12:29:54;;;;;;;4.47;2.55;;;8.60;99.90;;;;;;5128865;28;20019;-51
2023/11/04 12:32:21;;;;;;;3.95;2.72;;;8.70;99.90;;;;;;5128285;28;20349;-51
2023/11/04 12:34:56;;;;;;;3.88;1.92;;;8.70;99.90;;;;;;5128095;28;20111;-52
2023/11/04 12:37:26;;;;;;;3.85;2.38;;;8.70;99.90;;;;;;5127733;28;20031;-52
2023/11/04 12:39:53;;;;;;;5.45;2.28;;;8.70;99.90;;;;;;5128566;28;20027;-52
2023/11/04 12:42:18;;;;;;;4.25;2.75;;;8.80;99.90;;;;;;5127471;28;20289;-53
2023/11/04 12:44:44;;;;;;;5.13;3.00;;;8.80;99.90;;;;;;5129053;28;20038;-52
2023/11/04 12:47:10;;;;;;;4.10;1.88;;;8.80;99.90;;;;;;5128963;28;20391;-53
2023/11/04 12:49:37;;;;;;;3.20;2.20;;;8.80;99.90;;;;;;5127938;28;20023;-53
2023/11/04 12:52:09;;;;;;;4.53;1.95;;;8.90;99.90;;;;;;5128812;28;20039;-53
2023/11/04 12:54:36;;;;;;;4.70;2.00;;;8.90;99.90;;;;;;5128689;28;20112;-53